Weather History for KSEZ - March, 2013

Change the Weather History Date:

Tuesday, March 19, 2013

  Actual Average Record
Temperature  
Mean Temperature 62 °F -  
Max Temperature 71 °F 66 °F 71 °F (2013)
Min Temperature 53 °F 36 °F 28 °F (2012)
Degree Days  
Heating Degree Days 3    
Growing Degree Days 12 (Base 50)    
Moisture  
Dew Point 28 °F    
Average Humidity 31    
Maximum Humidity 44    
Minimum Humidity 15    
Precipitation  
Precipitation 0.00 in - - ()
Sea Level Pressure  
Sea Level Pressure 30.08 in    
Wind  
Wind Speed 6 mph (NE)    
Max Wind Speed 13 mph    
Max Gust Speed 16 mph    
Visibility 10 miles    
Events      
Averages and records for this station are not official NWS values.
T = Trace of Precipitation, MM = Missing Value Source: NWS Daily Summary

Daily Weather History Graph

Daily Weather History Graph

Search for Another Location

Airport or City:

Trip Planner

Search our weather history database for the weather conditions in past years. The results will help you decide how hot, cold, wet, or windy it might be!

Date:

Astronomy

Mar. 19, 2013 Rise Set
Actual Time 6:31 AM MST 6:38 PM MST
Civil Twilight 6:06 AM MST 7:03 PM MST
Nautical Twilight 5:37 AM MST 7:32 PM MST
Astronomical Twilight 5:07 AM MST 8:02 PM MST
Moon 11:38 AM MST (3/19) 1:15 AM MST (3/19)
Length of Visible Light 12h 56m
Length of Day
12h 06m
Waxing Crescent, 51% of the Moon is Illuminated
Mar 19
Waxing Crescent
Mar 27
Full
Apr 2
Last Quarter
Apr 10
New
Apr 18
First Quarter

Hourly Weather History & Observations

Time (MST) Temp. Dew Point Humidity Pressure Visibility Wind Dir Wind Speed Gust Speed Precip Events Conditions
12:15 AM 55.4 °F 30.2 °F 38% 30.06 in 10.0 mi NE 5.8 mph - N/A   Clear
12:55 AM 53.6 °F 32.0 °F 44% 30.06 in 10.0 mi NNE 6.9 mph - N/A   Clear
1:15 AM 53.6 °F 32.0 °F 44% 30.05 in 10.0 mi NE 6.9 mph - N/A   Clear
1:35 AM 53.6 °F 32.0 °F 44% 30.06 in 10.0 mi NE 8.1 mph - N/A   Clear
1:55 AM 53.6 °F 32.0 °F 44% 30.06 in 10.0 mi NE 9.2 mph - N/A   Clear
2:15 AM 53.6 °F 32.0 °F 44% 30.06 in 10.0 mi NE 9.2 mph - N/A   Clear
2:35 AM 53.6 °F 30.2 °F 41% 30.04 in 10.0 mi NE 9.2 mph - N/A   Clear
2:55 AM 53.6 °F 30.2 °F 41% 30.04 in 10.0 mi NE 10.4 mph - N/A   Clear
3:15 AM 53.6 °F 32.0 °F 44% 30.03 in 10.0 mi NE 8.1 mph - N/A   Scattered Clouds
3:35 AM 53.6 °F 30.2 °F 41% 30.02 in 10.0 mi NE 10.4 mph - N/A   Scattered Clouds
3:55 AM 53.6 °F 32.0 °F 44% 30.01 in 10.0 mi NE 10.4 mph - N/A   Scattered Clouds
4:15 AM 53.6 °F 32.0 °F 44% 30.00 in 10.0 mi NE 9.2 mph - N/A   Scattered Clouds
4:35 AM 53.6 °F 32.0 °F 44% 30.02 in 10.0 mi NE 6.9 mph - N/A   Clear
4:55 AM 53.6 °F 32.0 °F 44% 30.02 in 10.0 mi NNE 9.2 mph - N/A   Mostly Cloudy
5:15 AM 53.6 °F 32.0 °F 44% 30.03 in 10.0 mi NE 9.2 mph - N/A   Scattered Clouds
5:35 AM 53.6 °F 32.0 °F 44% 30.02 in 10.0 mi NE 8.1 mph - N/A   Clear
5:55 AM 53.6 °F 32.0 °F 44% 30.03 in 10.0 mi NE 6.9 mph - N/A   Clear
6:15 AM 53.6 °F 32.0 °F 44% 30.04 in 10.0 mi NE 4.6 mph - N/A   Scattered Clouds
6:35 AM 53.6 °F 32.0 °F 44% 30.04 in 10.0 mi ENE 4.6 mph - N/A   Scattered Clouds
6:55 AM 53.6 °F 32.0 °F 44% 30.06 in 10.0 mi NE 5.8 mph - N/A   Clear
7:15 AM 53.6 °F 32.0 °F 44% 30.06 in 10.0 mi NE 3.5 mph - N/A   Clear
7:35 AM 53.6 °F 32.0 °F 44% 30.07 in 10.0 mi NE 6.9 mph - N/A   Clear
7:55 AM 53.6 °F 32.0 °F 44% 30.08 in 10.0 mi NE 5.8 mph - N/A   Scattered Clouds
8:15 AM 55.4 °F 32.0 °F 41% 30.08 in 10.0 mi NE 6.9 mph - N/A   Scattered Clouds
8:35 AM 55.4 °F 32.0 °F 41% 30.08 in 10.0 mi NE 4.6 mph - N/A   Clear
8:55 AM 57.2 °F 32.0 °F 38% 30.09 in 10.0 mi NE 4.6 mph - N/A   Clear
9:15 AM 60.8 °F 32.0 °F 34% 30.10 in 10.0 mi Calm Calm - N/A   Clear
9:35 AM 62.6 °F 32.0 °F 32% 30.10 in 10.0 mi South 4.6 mph - N/A   Scattered Clouds
9:55 AM 60.8 °F 32.0 °F 34% 30.10 in 10.0 mi Calm Calm - N/A   Mostly Cloudy
10:15 AM 62.6 °F 32.0 °F 32% 30.10 in 10.0 mi South 3.5 mph - N/A   Mostly Cloudy
10:35 AM 62.6 °F 30.2 °F 30% 30.10 in 10.0 mi Calm Calm - N/A   Overcast
10:55 AM 62.6 °F 28.4 °F 27% 30.10 in 10.0 mi Calm Calm - N/A   Overcast
11:15 AM 64.4 °F 26.6 °F 24% 30.10 in 10.0 mi West 3.5 mph - N/A   Scattered Clouds
11:35 AM 66.2 °F 28.4 °F 24% 30.10 in 10.0 mi South 5.8 mph - N/A   Clear
11:55 AM 69.8 °F 28.4 °F 21% 30.09 in 10.0 mi SE 4.6 mph - N/A   Clear
12:15 PM 68.0 °F 24.8 °F 20% 30.09 in 10.0 mi West 6.9 mph - N/A   Clear
12:35 PM 68.0 °F 23.0 °F 18% 30.09 in 10.0 mi South 5.8 mph - N/A   Clear
12:55 PM 68.0 °F 24.8 °F 20% 30.08 in 10.0 mi WNW 5.8 mph - N/A   Clear
1:15 PM 69.8 °F 24.8 °F 18% 30.08 in 10.0 mi WNW 6.9 mph 10.4 mph N/A   Clear
1:35 PM 69.8 °F 23.0 °F 17% 30.07 in 10.0 mi SW 4.6 mph - N/A   Clear
1:55 PM 71.6 °F 23.0 °F 16% 30.06 in 10.0 mi West 5.8 mph - N/A   Clear
2:15 PM 69.8 °F 23.0 °F 17% 30.06 in 10.0 mi WNW 5.8 mph - N/A   Scattered Clouds
2:35 PM 71.6 °F 23.0 °F 16% 30.06 in 10.0 mi SSW 5.8 mph - N/A   Mostly Cloudy
2:55 PM 71.6 °F 23.0 °F 16% 30.05 in 10.0 mi West 5.8 mph - N/A   Scattered Clouds
3:15 PM 69.8 °F 21.2 °F 16% 30.05 in 10.0 mi West 5.8 mph - N/A   Mostly Cloudy
3:35 PM 71.6 °F 21.2 °F 15% 30.05 in 10.0 mi WNW 5.8 mph - N/A   Scattered Clouds
3:55 PM 71.6 °F 23.0 °F 16% 30.05 in 10.0 mi WNW 5.8 mph - N/A   Clear
4:15 PM 71.6 °F 23.0 °F 16% 30.05 in 10.0 mi SW 6.9 mph - N/A   Scattered Clouds
4:35 PM 71.6 °F 23.0 °F 16% 30.05 in 10.0 mi WSW 4.6 mph - N/A   Mostly Cloudy
4:55 PM 71.6 °F 23.0 °F 16% 30.05 in 10.0 mi South 3.5 mph - N/A   Mostly Cloudy
5:15 PM 71.6 °F 21.2 °F 15% 30.06 in 10.0 mi SW 5.8 mph - N/A   Mostly Cloudy
5:35 PM 69.8 °F 21.2 °F 16% 30.06 in 10.0 mi WSW 3.5 mph - N/A   Mostly Cloudy
5:55 PM 69.8 °F 21.2 °F 16% 30.06 in 10.0 mi WNW 4.6 mph - N/A   Mostly Cloudy
6:15 PM 68.0 °F 23.0 °F 18% 30.07 in 10.0 mi WSW 3.5 mph - N/A   Overcast
6:35 PM 64.4 °F 28.4 °F 26% 30.07 in 10.0 mi SSE 3.5 mph - N/A   Scattered Clouds
6:55 PM 64.4 °F 30.2 °F 28% 30.09 in 10.0 mi SSE 6.9 mph - N/A   Clear
7:15 PM 64.4 °F 32.0 °F 30% 30.10 in 10.0 mi SSW 4.6 mph - N/A   Clear
7:35 PM 62.6 °F 32.0 °F 32% 30.11 in 10.0 mi Calm Calm - N/A   Clear
7:55 PM 60.8 °F 32.0 °F 34% 30.12 in 10.0 mi SE 5.8 mph - N/A   Clear
8:15 PM 60.8 °F 32.0 °F 34% 30.14 in 10.0 mi Calm Calm - N/A   Clear
8:35 PM 60.8 °F 32.0 °F 34% 30.14 in 10.0 mi Calm Calm - N/A   Clear
8:55 PM 60.8 °F 30.2 °F 31% 30.15 in 10.0 mi ENE 4.6 mph - N/A   Clear
9:15 PM 59.0 °F 26.6 °F 29% 30.15 in 10.0 mi NE 8.1 mph - N/A   Clear
9:35 PM 59.0 °F 24.8 °F 27% 30.15 in 10.0 mi ENE 10.4 mph 16.1 mph N/A   Clear
9:55 PM 59.0 °F 24.8 °F 27% 30.15 in 10.0 mi NE 8.1 mph - N/A   Clear
10:15 PM 57.2 °F 26.6 °F 31% 30.17 in 10.0 mi NE 8.1 mph - N/A   Clear
10:35 PM 57.2 °F 24.8 °F 29% 30.17 in 10.0 mi ENE 10.4 mph - N/A   Clear
10:55 PM 57.2 °F 24.8 °F 29% 30.18 in 10.0 mi NE 9.2 mph - N/A   Clear
11:15 PM 55.4 °F 24.8 °F 31% 30.17 in 10.0 mi NE 10.4 mph - N/A   Clear
11:55 PM 55.4 °F 23.0 °F 29% 30.18 in 10.0 mi NE 12.7 mph - N/A   Clear